Huron — WDI5216 — position and weather

sailwx.info

Track history (hours):
 
Tides and Currents Weather Stations Pressure Air Temp Water Temp Dewpoint Dewpoint Depression Visibility Wind Speed Wind Dir Waves Ship Positions

Huron

Owner: MIFC SHIPPING LLC, Mackinac Island, MI. More information available from US FCC via Universal Licensing System and Coast Guard Vessel Documentation Center.

Last reported at 2018-Jan-05 22:12 UTC. Time now 2018-Feb-24 06:40 UTC.
Position N 45°52' W 084°43'.
Warning: this ship's position is 49 days out of date.

Length 29 m; draft 2.4 m.

Type: Passenger vessel. MMSI: 367706310.

Date/timePositionNaut miles runAvg speedWind from/ knotsBaromVisibWave heightAir tempDewpointWater temp
2018-Jan-05 22:12N 45°52' W 084°43'2 8.0
2018-Jan-05 22:00N 45°52' W 084°41'3 4.0
2018-Jan-05 21:13N 45°51' W 084°37'2 8.0
2018-Jan-05 20:55N 45°52' W 084°40'2 0.9
2018-Jan-05 18:14N 45°52' W 084°43'2 7.6
2018-Jan-05 18:00N 45°52' W 084°41'3 4.3
2018-Jan-05 17:19N 45°51' W 084°37'5 1.9
2018-Jan-05 14:54N 45°52' W 084°43'3 6.7
2018-Jan-05 14:30N 45°51' W 084°40'2 3.5
2018-Jan-05 13:57N 45°51' W 084°37'3 6.7
2018-Jan-05 13:27N 45°52' W 084°41'1 0.1
2018-Jan-04 22:11N 45°52' W 084°43'1 7.8
2018-Jan-04 22:01N 45°52' W 084°41'3 3.4
2018-Jan-04 21:09N 45°51' W 084°38'4 1.4
2018-Jan-04 18:06N 45°52' W 084°43'1 8.3
2018-Jan-04 18:01N 45°52' W 084°42'4 4.4
2018-Jan-04 17:06N 45°51' W 084°37'2 9.2
2018-Jan-04 16:53N 45°51' W 084°40'3 2.9
2018-Jan-04 15:54N 45°52' W 084°43'0 0.2
2018-Jan-04 14:53N 45°52' W 084°43'3 7.4
2018-Jan-04 14:30N 45°51' W 084°40'2 3.3
2018-Jan-04 13:56N 45°51' W 084°37'5 0.3
2018-Jan-03 22:38N 45°52' W 084°43'  
Track history (hours):
 
Tides and Currents Weather Stations Pressure Air Temp Water Temp Dewpoint Dewpoint Depression Visibility Wind Speed Wind Dir Waves Ship Positions

Huron

Owner: MIFC SHIPPING LLC, Mackinac Island, MI. More information available from US FCC via Universal Licensing System and Coast Guard Vessel Documentation Center.

Last reported at 2018-Jan-05 22:12 UTC. Time now 2018-Feb-24 06:40 UTC.
Position N 45°52' W 084°43'.
Warning: this ship's position is 49 days out of date.

Length 29 m; draft 2.4 m.

Type: Passenger vessel. MMSI: 367706310.

Date/timePositionNaut miles runAvg speedWind from/ knotsBaromVisibWave heightAir tempDewpointWater temp
2018-Jan-05 22:12N 45°52' W 084°43'2 8.0
2018-Jan-05 22:00N 45°52' W 084°41'3 4.0
2018-Jan-05 21:13N 45°51' W 084°37'2 8.0
2018-Jan-05 20:55N 45°52' W 084°40'2 0.9
2018-Jan-05 18:14N 45°52' W 084°43'2 7.6
2018-Jan-05 18:00N 45°52' W 084°41'3 4.3
2018-Jan-05 17:19N 45°51' W 084°37'5 1.9
2018-Jan-05 14:54N 45°52' W 084°43'3 6.7
2018-Jan-05 14:30N 45°51' W 084°40'2 3.5
2018-Jan-05 13:57N 45°51' W 084°37'3 6.7
2018-Jan-05 13:27N 45°52' W 084°41'1 0.1
2018-Jan-04 22:11N 45°52' W 084°43'1 7.8
2018-Jan-04 22:01N 45°52' W 084°41'3 3.4
2018-Jan-04 21:09N 45°51' W 084°38'4 1.4
2018-Jan-04 18:06N 45°52' W 084°43'1 8.3
2018-Jan-04 18:01N 45°52' W 084°42'4 4.4
2018-Jan-04 17:06N 45°51' W 084°37'2 9.2
2018-Jan-04 16:53N 45°51' W 084°40'3 2.9
2018-Jan-04 15:54N 45°52' W 084°43'0 0.2
2018-Jan-04 14:53N 45°52' W 084°43'3 7.4
2018-Jan-04 14:30N 45°51' W 084°40'2 3.3
2018-Jan-04 13:56N 45°51' W 084°37'5 0.3
2018-Jan-03 22:38N 45°52' W 084°43'  

Dump ship's entire track history